Dirección General De Aeronáutica Civil

Dirección Meteorológica de Chile - Servicios Climáticos

Informe General de Control de Calidad de la Estación

Listado de niveles de control de calidad para algunos parámetros
Estación Rucamanque-UFRO (380032)
Fecha de Revisión de los datos :

Elementos

Registros Niveles de Control Total
Nivel 0 Nivel 1 Nivel 2 Nivel 3 Errores Porcentaje
01 Temperatura del Aire Seco 40.393 0 . 1 0.00 % 0 . 0 . 1 0.00 %
02 Temperatura de Rocío 40.393 0 . 0 . 0 . 0 . 0 0.00 %
03 Humedad Relativa del Aire 42.643 0 . 0 . 0 . 0 . 0 0.00 %
04 Temperatura Máxima PM 1.594 0 . 0 . 49 3.07 % 0 . 49 3.07 %
05 Temperatura Mínima AM 1.683 0 . 0 . 24 1.43 % 0 . 24 1.43 %
06 Viento a 10 m. de Altura 41.775 0 . 0 . 0 . 0 . 0 0.00 %
07 Agua Caida, Acumulada 6 Horas 7.056 0 . 0 . 0 . 0 . 0 0.00 %
08 Presión Atm. a Nivel de Estación (QFE) 42.640 0 . 0 . 0 . 0 . 0 0.00 %
09 Presión Atm. a Nivel Medio del Mar (QFF) 42.640 0 . 0 . 0 . 0 . 0 0.00 %
10 Presión Atm. Estándar OACI (QNH) 42.640 0 . 0 . 0 . 0 . 0 0.00 %

Totales

303.457 . 0.0000 % . 0.0003 % . 0.0241 % . 0.0000 % 74 0.0244 %

Detalle de Errores Encontrados

Nivel Fecha del Dato Descripción Información Error Fecha Ingreso
1 2022-12-22 16:00:00 HR (Humedad Relativa) es igual a 100% y Ts <> Td 13.4 - 13.1 2022-12-23 16:51:00
Errores del Nivel 1
Nivel Fecha del Dato Descripción Información Error Fecha Ingreso
2 2018-12-05 00:00:00 Temperatura 23.0 del 04-12-2018 18:00, Mayor que la Máxima 18.5 05-12-2018 00:00 23.0 -- 18.5 2018-12-05 00:15:00
2 2019-03-20 00:00:00 Temperatura 14.8 del 19-03-2019 18:00, Mayor que la Máxima 10.0 20-03-2019 00:00 14.8 -- 10.0 2019-03-20 00:20:00
2 2020-03-20 00:00:00 Temperatura 22.1 del 19-03-2020 20:00, Mayor que la Máxima 15.5 20-03-2020 00:00 22.1 -- 15.5 2020-03-20 00:20:00
2 2020-04-09 00:00:00 Temperatura 27.3 del 08-04-2020 19:00, Mayor que la Máxima 16.5 09-04-2020 00:00 27.3 -- 16.5 2020-04-09 15:30:00
2 2020-07-03 00:00:00 Temperatura 10.0 del 02-07-2020 18:00, Mayor que la Máxima 8.3 03-07-2020 00:00 10.0 -- 8.3 2020-07-03 00:20:00
2 2020-07-04 00:00:00 Temperatura 10.3 del 03-07-2020 18:00, Mayor que la Máxima 7.9 04-07-2020 00:00 10.3 -- 7.9 2020-07-04 00:20:00
2 2020-07-05 00:00:00 Temperatura 10.9 del 04-07-2020 19:00, Mayor que la Máxima 8.4 05-07-2020 00:00 10.9 -- 8.4 2020-07-05 00:20:00
2 2020-07-06 00:00:00 Temperatura 7.2 del 05-07-2020 18:00, Mayor que la Máxima 6.8 06-07-2020 00:00 7.2 -- 6.8 2020-07-06 00:20:00
2 2020-07-08 00:00:00 Temperatura 7.4 del 07-07-2020 14:00, Mayor que la Máxima 5.6 08-07-2020 00:00 7.4 -- 5.6 2020-07-08 00:20:00
2 2020-07-17 00:00:00 Temperatura 10.1 del 16-07-2020 17:00, Mayor que la Máxima 9.9 17-07-2020 00:00 10.1 -- 9.9 2020-07-17 00:20:00
2 2020-07-19 00:00:00 Temperatura 10.8 del 18-07-2020 13:00, Mayor que la Máxima 10.7 19-07-2020 00:00 10.8 -- 10.7 2020-07-19 00:20:00
2 2020-07-23 00:00:00 Temperatura 9.0 del 22-07-2020 19:00, Mayor que la Máxima 6.4 23-07-2020 00:00 9.0 -- 6.4 2020-07-23 00:20:00
2 2020-07-24 00:00:00 Temperatura 9.9 del 23-07-2020 19:00, Mayor que la Máxima 6.2 24-07-2020 00:00 9.9 -- 6.2 2020-07-24 00:20:00
2 2020-07-25 00:00:00 Temperatura 10.4 del 24-07-2020 19:00, Mayor que la Máxima 6.8 25-07-2020 00:00 10.4 -- 6.8 2020-07-25 00:20:00
2 2020-07-27 00:00:00 Temperatura 10.0 del 26-07-2020 19:00, Mayor que la Máxima 7.3 27-07-2020 00:00 10.0 -- 7.3 2020-07-27 00:20:00
2 2020-08-02 00:00:00 Temperatura 11.6 del 01-08-2020 20:00, Mayor que la Máxima 9.4 02-08-2020 00:00 11.6 -- 9.4 2020-08-02 00:20:00
2 2020-08-10 00:00:00 Temperatura 9.2 del 09-08-2020 18:00, Mayor que la Máxima 6.4 10-08-2020 00:00 9.2 -- 6.4 2020-08-10 00:20:00
2 2020-08-11 00:00:00 Temperatura 6.9 del 10-08-2020 18:00, Mayor que la Máxima 6.7 11-08-2020 00:00 6.9 -- 6.7 2020-08-11 00:20:00
2 2020-08-12 00:00:00 Temperatura 7.0 del 11-08-2020 19:00, Mayor que la Máxima 6.7 12-08-2020 00:00 7.0 -- 6.7 2020-08-12 00:20:00
2 2020-08-21 00:00:00 Temperatura 14.3 del 20-08-2020 20:00, Mayor que la Máxima 13.2 21-08-2020 00:00 14.3 -- 13.2 2020-08-21 00:20:00
2 2020-08-22 00:00:00 Temperatura 15.5 del 21-08-2020 20:00, Mayor que la Máxima 14.9 22-08-2020 00:00 15.5 -- 14.9 2020-08-22 00:20:00
2 2020-08-25 00:00:00 Temperatura 14.3 del 24-08-2020 16:00, Mayor que la Máxima 14.1 25-08-2020 00:00 14.3 -- 14.1 2020-08-25 00:20:00
2 2020-09-06 00:00:00 Temperatura 12.7 del 05-09-2020 17:00, Mayor que la Máxima 9.9 06-09-2020 00:00 12.7 -- 9.9 2020-09-06 00:22:00
2 2020-09-07 00:00:00 Temperatura 16.4 del 06-09-2020 21:00, Mayor que la Máxima 16.3 07-09-2020 00:00 16.4 -- 16.3 2020-09-07 00:20:00
2 2020-09-08 00:00:00 Temperatura 15.3 del 07-09-2020 20:00, Mayor que la Máxima 12.1 08-09-2020 00:00 15.3 -- 12.1 2020-09-08 00:20:00
2 2020-09-21 00:00:00 Temperatura 19.9 del 20-09-2020 21:00, Mayor que la Máxima 14.4 21-09-2020 00:00 19.9 -- 14.4 2020-09-21 00:20:00
2 2020-09-22 00:00:00 Temperatura 14.2 del 21-09-2020 20:00, Mayor que la Máxima 10.0 22-09-2020 00:00 14.2 -- 10.0 2020-09-22 00:20:00
2 2020-09-23 00:00:00 Temperatura 14.0 del 22-09-2020 19:00, Mayor que la Máxima 12.7 23-09-2020 00:00 14.0 -- 12.7 2020-09-23 00:20:00
2 2020-09-24 00:00:00 Temperatura 16.5 del 23-09-2020 19:00, Mayor que la Máxima 16.1 24-09-2020 00:00 16.5 -- 16.1 2020-09-24 00:20:00
2 2020-11-14 00:00:00 Temperatura 15.7 del 13-11-2020 14:00, Mayor que la Máxima 14.3 14-11-2020 00:00 15.7 -- 14.3 2020-11-14 09:41:00
2 2020-11-17 00:00:00 Temperatura 19.4 del 16-11-2020 19:00, Mayor que la Máxima 14.7 17-11-2020 00:00 19.4 -- 14.7 2020-11-17 03:31:00
2 2020-11-20 00:00:00 Temperatura 17.8 del 19-11-2020 20:00, Mayor que la Máxima 13.5 20-11-2020 00:00 17.8 -- 13.5 2020-11-20 02:11:00
2 2020-12-11 00:00:00 Temperatura 14.9 del 10-12-2020 20:00, Mayor que la Máxima 12.4 11-12-2020 00:00 14.9 -- 12.4 2020-12-11 11:11:00
2 2021-02-04 00:00:00 Temperatura 29.4 del 03-02-2021 20:00, Mayor que la Máxima 24.5 04-02-2021 00:00 29.4 -- 24.5 2021-02-16 14:11:00
2 2022-05-15 00:00:00 Temperatura 18.7 del 14-05-2022 21:00, Mayor que la Máxima 13.0 15-05-2022 00:00 18.7 -- 13.0 2022-05-16 06:36:00
2 2022-05-17 00:00:00 Temperatura 18.6 del 16-05-2022 19:00, Mayor que la Máxima 9.6 17-05-2022 00:00 18.6 -- 9.6 2022-05-17 14:51:00
2 2022-05-21 00:00:00 Temperatura 12.0 del 20-05-2022 18:00, Mayor que la Máxima 11.4 21-05-2022 00:00 12.0 -- 11.4 2022-05-21 15:09:00
2 2022-05-25 00:00:00 Temperatura 9.1 del 24-05-2022 18:00, Mayor que la Máxima 6.7 25-05-2022 00:00 9.1 -- 6.7 2022-05-25 02:51:00
2 2022-06-06 00:00:00 Temperatura 12.0 del 05-06-2022 16:00, Mayor que la Máxima 10.1 06-06-2022 00:00 12.0 -- 10.1 2022-06-06 17:36:00
2 2022-06-08 00:00:00 Temperatura 12.4 del 07-06-2022 18:00, Mayor que la Máxima 11.4 08-06-2022 00:00 12.4 -- 11.4 2022-06-08 16:51:00
2 2022-06-09 00:00:00 Temperatura 10.8 del 08-06-2022 18:00, Mayor que la Máxima 6.2 09-06-2022 00:00 10.8 -- 6.2 2022-06-09 13:09:00
2 2022-06-12 00:00:00 Temperatura 12.7 del 11-06-2022 17:00, Mayor que la Máxima 9.8 12-06-2022 00:00 12.7 -- 9.8 2022-06-12 02:51:00
2 2022-06-17 00:00:00 Temperatura 8.7 del 16-06-2022 18:00, Mayor que la Máxima 6.5 17-06-2022 00:00 8.7 -- 6.5 2022-06-17 02:51:00
2 2022-11-02 00:00:00 Temperatura 25.4 del 01-11-2022 21:00, Mayor que la Máxima 17.5 02-11-2022 00:00 25.4 -- 17.5 2022-11-02 00:09:00
2 2022-11-03 00:00:00 Temperatura 26.2 del 02-11-2022 19:00, Mayor que la Máxima 15.0 03-11-2022 00:00 26.2 -- 15.0 2022-11-03 00:09:00
2 2022-11-29 00:00:00 Temperatura 24.5 del 28-11-2022 18:00, Mayor que la Máxima 12.4 29-11-2022 00:00 24.5 -- 12.4 2022-11-29 10:36:00
2 2022-12-08 00:00:00 Temperatura 20.1 del 07-12-2022 17:00, Mayor que la Máxima 15.7 08-12-2022 00:00 20.1 -- 15.7 2022-12-08 00:08:00
2 2022-12-27 00:00:00 Temperatura 19.1 del 26-12-2022 22:00, Mayor que la Máxima 15.8 27-12-2022 00:00 19.1 -- 15.8 2022-12-27 00:09:00
2 2023-02-10 00:00:00 Temperatura 28.8 del 09-02-2023 20:00, Mayor que la Máxima 27.7 10-02-2023 00:00 28.8 -- 27.7 2023-02-10 00:21:00
2 2018-12-29 12:00:00 Temperatura 8.1 del 29-12-2018 08:00, Menor que la Mínima 9.9 29-12-2018 12:00 8.1 -- 9.9 2018-12-29 12:20:00
2 2019-02-03 12:00:00 Temperatura 21.2 del 03-02-2019 08:00, Menor que la Mínima 25.6 03-02-2019 12:00 21.2 -- 25.6 2019-02-03 12:40:00
2 2019-02-04 12:00:00 Temperatura 15.1 del 04-02-2019 10:00, Menor que la Mínima 17.4 04-02-2019 12:00 15.1 -- 17.4 2019-02-04 12:50:00
2 2019-08-05 12:00:00 Temperatura 1.9 del 05-08-2019 07:00, Menor que la Mínima 2.8 05-08-2019 12:00 1.9 -- 2.8 2019-08-05 13:12:00
2 2020-04-15 12:00:00 Temperatura 12.2 del 15-04-2020 03:00, Menor que la Mínima 12.3 15-04-2020 12:00 12.2 -- 12.3 2020-04-15 12:20:00
2 2020-07-02 12:00:00 Temperatura 5.7 del 02-07-2020 09:00, Menor que la Mínima 6.2 02-07-2020 12:00 5.7 -- 6.2 2020-07-02 12:20:00
2 2020-07-04 12:00:00 Temperatura 4.5 del 04-07-2020 05:00, Menor que la Mínima 4.9 04-07-2020 12:00 4.5 -- 4.9 2020-07-04 12:20:00
2 2020-07-24 12:00:00 Temperatura 3.0 del 24-07-2020 04:00, Menor que la Mínima 4.0 24-07-2020 12:00 3.0 -- 4.0 2020-07-24 12:20:00
2 2020-07-25 12:00:00 Temperatura 6.4 del 25-07-2020 01:00, Menor que la Mínima 6.5 25-07-2020 12:00 6.4 -- 6.5 2020-07-25 12:20:00
2 2020-08-01 12:00:00 Temperatura 8.8 del 01-08-2020 04:00, Menor que la Mínima 8.9 01-08-2020 12:00 8.8 -- 8.9 2020-08-01 12:20:00
2 2020-08-23 12:00:00 Temperatura 2.8 del 23-08-2020 07:00, Menor que la Mínima 5.6 23-08-2020 12:00 2.8 -- 5.6 2020-08-23 12:20:00
2 2020-09-04 12:00:00 Temperatura 1.7 del 04-09-2020 11:00, Menor que la Mínima 2.3 04-09-2020 12:00 1.7 -- 2.3 2020-09-04 12:20:00
2 2020-09-05 12:00:00 Temperatura 5.6 del 05-09-2020 08:00, Menor que la Mínima 6.0 05-09-2020 12:00 5.6 -- 6.0 2020-09-05 12:21:00
2 2020-09-12 12:00:00 Temperatura 4.8 del 12-09-2020 02:00, Menor que la Mínima 5.6 12-09-2020 12:00 4.8 -- 5.6 2020-09-12 12:20:00
2 2020-09-20 12:00:00 Temperatura 4.0 del 20-09-2020 09:00, Menor que la Mínima 4.1 20-09-2020 12:00 4.0 -- 4.1 2020-09-20 12:20:00
2 2020-11-10 12:00:00 Temperatura 7.7 del 10-11-2020 06:00, Menor que la Mínima 8.3 10-11-2020 12:00 7.7 -- 8.3 2020-11-10 12:20:00
2 2020-11-15 12:00:00 Temperatura 2.7 del 15-11-2020 09:00, Menor que la Mínima 6.1 15-11-2020 12:00 2.7 -- 6.1 2020-11-15 12:20:00
2 2020-11-17 12:00:00 Temperatura 4.5 del 17-11-2020 09:00, Menor que la Mínima 7.3 17-11-2020 12:00 4.5 -- 7.3 2020-11-17 12:20:00
2 2020-11-19 12:00:00 Temperatura 9.5 del 19-11-2020 11:00, Menor que la Mínima 10.0 19-11-2020 12:00 9.5 -- 10.0 2020-11-19 12:20:00
2 2021-12-29 12:00:00 Temperatura 10.9 del 29-12-2021 05:00, Menor que la Mínima 11.4 29-12-2021 12:00 10.9 -- 11.4 2021-12-29 12:20:00
2 2022-02-08 12:00:00 Temperatura 12.0 del 08-02-2022 04:00, Menor que la Mínima 12.6 08-02-2022 12:00 12.0 -- 12.6 2022-02-08 12:36:00
2 2022-11-28 12:00:00 Temperatura 11.0 del 28-11-2022 10:00, Menor que la Mínima 13.8 28-11-2022 12:00 11.0 -- 13.8 2022-11-28 14:09:00
2 2023-01-11 12:00:00 Temperatura 6.3 del 11-01-2023 09:00, Menor que la Mínima 9.8 11-01-2023 12:00 6.3 -- 9.8 2023-01-15 10:36:00
2 2023-09-29 12:00:00 Temperatura 11.3 del 29-09-2023 10:00, Menor que la Mínima 16.7 29-09-2023 12:00 11.3 -- 16.7 2023-09-29 16:35:00
Errores del Nivel 73
Informe generado el 23-02-2024 11:17
Requerimiento: RE6001